Time;durP1;ratioP1;P1;durP2;ratioP2;P2;SDS_P1;SDS_P2;PMS_P1;PMS_P2;Temp;Humidity;BMP_temperature;BMP_pressure;BME280_temperature;BME280_humidity;BME280_pressure;Samples;Min_cycle;Max_cycle;Signal;HPM_P1;HPM_P2
2021/07/24 00:00:41;;;;;;;15.73;11.20;;;19.40;99.90;;;;;;4116606;28;20210;-78
2021/07/24 00:02:43;;;;;;;16.27;11.33;;;19.30;99.90;;;;;;4118936;28;20211;-78
2021/07/24 00:04:44;;;;;;;14.67;11.07;;;19.30;99.90;;;;;;4116173;28;20215;-78
2021/07/24 00:06:46;;;;;;;17.00;11.70;;;19.30;99.90;;;;;;4124249;28;20670;-76
2021/07/24 00:08:48;;;;;;;18.60;12.00;;;19.20;99.90;;;;;;4118446;28;20289;-78
2021/07/24 00:10:50;;;;;;;16.37;11.63;;;19.20;99.90;;;;;;4114143;28;20349;-78
2021/07/24 00:12:52;;;;;;;15.90;11.17;;;19.10;99.90;;;;;;4116218;28;20232;-78
2021/07/24 00:14:55;;;;;;;17.33;11.73;;;19.10;99.90;;;;;;4114672;28;20258;-78
2021/07/24 00:16:56;;;;;;;27.53;12.63;;;19.10;99.90;;;;;;4121978;28;20214;-78
2021/07/24 00:18:58;;;;;;;18.73;11.90;;;19.00;99.90;;;;;;4114864;28;20245;-78
2021/07/24 00:21:00;;;;;;;17.77;12.50;;;19.00;99.90;;;;;;4113489;28;20214;-78
2021/07/24 00:23:03;;;;;;;17.33;12.00;;;19.00;99.90;;;;;;4115233;28;20647;-78
2021/07/24 00:25:05;;;;;;;17.13;12.30;;;18.90;99.90;;;;;;4123490;28;20661;-78
2021/07/24 00:27:08;;;;;;;16.60;12.13;;;18.90;99.90;;;;;;4119826;28;20212;-78
2021/07/24 00:29:10;;;;;;;18.53;11.83;;;18.80;99.90;;;;;;4108351;28;20333;-78
2021/07/24 00:31:13;;;;;;;18.10;11.40;;;18.80;99.90;;;;;;4118755;28;20214;-78
2021/07/24 00:33:14;;;;;;;16.73;11.53;;;18.80;99.90;;;;;;4131124;28;20267;-78
2021/07/24 00:35:16;;;;;;;16.47;11.50;;;18.70;99.90;;;;;;4131248;28;20764;-78
2021/07/24 00:37:20;;;;;;;18.87;11.60;;;18.70;99.90;;;;;;4121652;28;20300;-78
2021/07/24 00:39:22;;;;;;;17.23;10.87;;;18.70;99.90;;;;;;4114940;28;20234;-78
2021/07/24 00:41:30;;;;;;;17.73;11.53;;;18.70;99.90;;;;;;4114919;28;20259;-77
2021/07/24 00:43:36;;;;;;;16.70;11.27;;;18.60;99.90;;;;;;4116220;28;20204;-78
2021/07/24 00:45:46;;;;;;;17.90;11.90;;;18.60;99.90;;;;;;4115188;28;20206;-78
2021/07/24 00:47:53;;;;;;;15.37;11.77;;;18.60;99.90;;;;;;4117487;28;20233;-78
2021/07/24 00:49:58;;;;;;;19.03;11.40;;;18.50;99.90;;;;;;4115211;28;20591;-78
2021/07/24 00:52:00;;;;;;;17.53;11.37;;;18.50;99.90;;;;;;4114310;28;20737;-78
2021/07/24 00:54:03;;;;;;;16.33;11.50;;;18.50;99.90;;;;;;4116292;28;20212;-78
2021/07/24 00:56:06;;;;;;;15.60;11.07;;;18.40;99.90;;;;;;4121965;28;20275;-78
2021/07/24 00:58:24;;;;;;;16.20;10.70;;;18.40;99.90;;;;;;4112698;28;20241;-78
2021/07/24 01:00:26;;;;;;;16.20;11.80;;;18.40;99.90;;;;;;4113895;28;20217;-77
2021/07/24 01:02:28;;;;;;;16.87;11.73;;;18.40;99.90;;;;;;4114473;28;20264;-78
2021/07/24 01:04:31;;;;;;;16.07;11.30;;;18.30;99.90;;;;;;4114177;28;20213;-77
2021/07/24 01:06:36;;;;;;;17.27;11.60;;;18.30;99.90;;;;;;4114498;28;20968;-78
2021/07/24 01:08:38;;;;;;;17.10;11.63;;;18.30;99.90;;;;;;4116240;28;20237;-78
2021/07/24 01:10:39;;;;;;;19.50;11.40;;;18.20;99.90;;;;;;4121931;28;20225;-78
2021/07/24 01:12:41;;;;;;;15.43;11.10;;;18.20;99.90;;;;;;4114254;28;20237;-78
2021/07/24 01:14:43;;;;;;;14.73;10.93;;;18.20;99.90;;;;;;4114597;28;20272;-78
2021/07/24 01:16:45;;;;;;;14.47;11.10;;;18.20;99.90;;;;;;4113601;28;20332;-78
2021/07/24 01:18:47;;;;;;;15.97;11.10;;;18.10;99.90;;;;;;4116998;28;20315;-78
2021/07/24 01:20:53;;;;;;;16.80;11.53;;;18.10;99.90;;;;;;4099284;29;20202;-78
2021/07/24 01:22:57;;;;;;;15.90;10.67;;;18.10;99.90;;;;;;4098321;29;20202;-78
2021/07/24 01:24:59;;;;;;;14.93;11.07;;;18.10;99.90;;;;;;4110069;28;20656;-78
2021/07/24 01:27:06;;;;;;;17.83;11.30;;;18.00;99.90;;;;;;4115406;28;20583;-78
2021/07/24 01:29:13;;;;;;;16.60;10.93;;;18.00;99.90;;;;;;4115403;28;20228;-78
2021/07/24 01:31:14;;;;;;;17.43;11.67;;;18.00;99.90;;;;;;4115535;28;20625;-78
2021/07/24 01:33:16;;;;;;;21.17;11.20;;;18.00;99.90;;;;;;4114829;28;20221;-78
2021/07/24 01:35:18;;;;;;;14.73;11.37;;;18.00;99.90;;;;;;4115249;28;20647;-78
2021/07/24 01:37:19;;;;;;;15.37;10.80;;;17.90;99.90;;;;;;4122032;28;20266;-78
2021/07/24 01:39:23;;;;;;;16.20;11.07;;;17.90;99.90;;;;;;4125532;28;20224;-78
2021/07/24 01:41:24;;;;;;;16.73;10.87;;;17.90;99.90;;;;;;4114041;28;20224;-78
2021/07/24 01:43:26;;;;;;;18.33;10.60;;;17.80;99.90;;;;;;4115774;28;20263;-78
2021/07/24 01:45:28;;;;;;;15.70;10.93;;;17.80;99.90;;;;;;4114636;28;20790;-78
2021/07/24 01:47:29;;;;;;;16.43;10.53;;;17.80;99.90;;;;;;4114940;28;20224;-78
2021/07/24 01:54:25;;;;;;;15.13;10.07;;;17.70;99.90;;;;;;4113147;28;20696;-78
2021/07/24 01:56:29;;;;;;;16.07;10.17;;;17.70;99.90;;;;;;4118565;28;20209;-78
2021/07/24 01:58:34;;;;;;;16.30;10.47;;;17.70;99.90;;;;;;4113473;28;20247;-78
2021/07/24 02:00:39;;;;;;;14.33;9.80;;;17.60;99.90;;;;;;4119810;28;20679;-78
2021/07/24 02:02:43;;;;;;;13.23;9.93;;;17.60;99.90;;;;;;4114196;28;20213;-78
2021/07/24 02:04:49;;;;;;;12.33;9.60;;;17.60;99.90;;;;;;4113887;28;20634;-78
2021/07/24 02:06:51;;;;;;;14.07;9.77;;;17.60;99.90;;;;;;4113399;28;20279;-78
2021/07/24 02:08:53;;;;;;;13.97;9.87;;;17.50;99.90;;;;;;4110037;28;20241;-78
2021/07/24 02:10:56;;;;;;;13.93;9.83;;;17.50;99.90;;;;;;4113901;28;20629;-78
2021/07/24 02:12:59;;;;;;;13.50;9.37;;;17.50;99.90;;;;;;4121272;28;20235;-78
2021/07/24 02:15:01;;;;;;;13.50;9.53;;;17.50;99.90;;;;;;4123509;28;20235;-78
2021/07/24 02:17:03;;;;;;;11.70;8.80;;;17.40;99.90;;;;;;4127217;28;20634;-78
2021/07/24 02:19:05;;;;;;;14.00;9.03;;;17.40;99.90;;;;;;4114534;28;20264;-78
2021/07/24 02:21:08;;;;;;;12.73;9.10;;;17.40;99.90;;;;;;4114150;28;20228;-78
2021/07/24 02:23:10;;;;;;;13.23;9.63;;;17.40;99.90;;;;;;4113944;28;20675;-78
2021/07/24 02:25:12;;;;;;;13.53;8.97;;;17.40;99.90;;;;;;4114236;28;20213;-77
2021/07/24 02:27:15;;;;;;;14.97;8.97;;;17.30;99.90;;;;;;4111347;28;20213;-78
2021/07/24 02:29:17;;;;;;;16.63;8.90;;;17.30;99.90;;;;;;4113632;28;20714;-78
2021/07/24 02:31:18;;;;;;;14.23;8.93;;;17.30;99.90;;;;;;4118215;28;20212;-78
2021/07/24 02:33:20;;;;;;;12.10;9.00;;;17.30;99.90;;;;;;4114801;28;20232;-77
2021/07/24 02:35:22;;;;;;;13.97;8.63;;;17.20;99.90;;;;;;4113381;28;20566;-78
2021/07/24 02:37:23;;;;;;;11.40;8.13;;;17.20;99.90;;;;;;4113352;28;20205;-78
2021/07/24 02:39:25;;;;;;;12.33;8.87;;;17.20;99.90;;;;;;4113438;28;20282;-78
2021/07/24 02:41:27;;;;;;;12.77;8.60;;;17.10;99.90;;;;;;4117335;28;20205;-78
2021/07/24 02:43:30;;;;;;;15.20;8.70;;;17.20;99.90;;;;;;4114092;28;20219;-78
2021/07/24 02:45:31;;;;;;;12.87;8.20;;;17.10;99.90;;;;;;4109495;28;20662;-78
2021/07/24 02:47:33;;;;;;;12.03;8.00;;;17.10;99.90;;;;;;4114057;28;20744;-78
2021/07/24 02:49:35;;;;;;;11.63;8.27;;;17.10;99.90;;;;;;4113549;28;20659;-78
2021/07/24 02:51:36;;;;;;;10.40;7.73;;;17.10;99.90;;;;;;4115895;28;20221;-78
2021/07/24 02:53:38;;;;;;;10.80;8.07;;;17.00;99.90;;;;;;4115161;28;20253;-78
2021/07/24 02:55:40;;;;;;;12.03;8.37;;;17.00;99.90;;;;;;4116774;28;20213;-78
2021/07/24 02:57:41;;;;;;;11.93;8.30;;;17.00;99.90;;;;;;4116603;28;20268;-78
2021/07/24 02:59:45;;;;;;;12.20;8.10;;;17.00;99.90;;;;;;4115396;28;20220;-78
2021/07/24 03:01:46;;;;;;;12.27;8.10;;;16.90;99.90;;;;;;4132547;28;20209;-78
2021/07/24 03:03:48;;;;;;;11.17;7.70;;;16.90;99.90;;;;;;4132572;28;20625;-78
2021/07/24 03:05:50;;;;;;;11.73;8.07;;;16.90;99.90;;;;;;4120419;28;20576;-78
2021/07/24 03:07:52;;;;;;;11.23;8.33;;;16.90;99.90;;;;;;4116283;28;20232;-78
2021/07/24 03:09:53;;;;;;;11.70;8.27;;;16.90;99.90;;;;;;4115620;28;20228;-78
2021/07/24 03:11:55;;;;;;;11.43;7.70;;;16.80;99.90;;;;;;4127494;28;20225;-78
2021/07/24 03:13:57;;;;;;;11.83;8.07;;;16.80;99.90;;;;;;4131799;28;20228;-78
2021/07/24 03:16:00;;;;;;;12.13;8.37;;;16.80;99.90;;;;;;4131642;28;20218;-78
2021/07/24 03:18:02;;;;;;;12.40;8.37;;;16.80;99.90;;;;;;4137261;23;20240;-78
2021/07/24 03:20:05;;;;;;;12.77;8.50;;;16.80;99.90;;;;;;4149626;28;20585;-78
2021/07/24 03:22:06;;;;;;;9.97;7.30;;;16.70;99.90;;;;;;4157826;28;20283;-78
2021/07/24 03:24:08;;;;;;;12.70;7.80;;;16.70;99.90;;;;;;4162857;28;20656;-78
2021/07/24 03:26:11;;;;;;;11.00;7.10;;;16.70;99.90;;;;;;4149588;28;20266;-79
2021/07/24 03:28:12;;;;;;;11.33;7.80;;;16.70;99.90;;;;;;4132894;28;20234;-79
2021/07/24 03:30:14;;;;;;;10.23;7.70;;;16.70;99.90;;;;;;4131872;28;20273;-78
2021/07/24 03:32:17;;;;;;;12.37;7.80;;;16.70;99.90;;;;;;4140055;28;20242;-78
2021/07/24 03:34:19;;;;;;;13.57;8.03;;;16.70;99.90;;;;;;4147957;28;20239;-81
2021/07/24 03:36:21;;;;;;;11.17;8.10;;;16.70;99.90;;;;;;4148230;28;20210;-78
2021/07/24 03:38:22;;;;;;;10.50;7.40;;;16.70;99.90;;;;;;4148516;28;20272;-78
2021/07/24 03:40:24;;;;;;;11.70;7.40;;;16.60;99.90;;;;;;4139704;28;20265;-78
2021/07/24 03:42:26;;;;;;;11.33;7.57;;;16.60;99.90;;;;;;4134046;28;20224;-78
2021/07/24 03:44:28;;;;;;;12.03;8.57;;;16.60;99.90;;;;;;4139098;28;20266;-80
2021/07/24 03:46:30;;;;;;;11.23;7.70;;;16.60;99.90;;;;;;4150663;28;20230;-79
2021/07/24 03:48:33;;;;;;;11.70;7.47;;;16.60;99.90;;;;;;4149979;28;20301;-79
2021/07/24 03:50:35;;;;;;;12.40;8.10;;;16.50;99.90;;;;;;4146928;28;20265;-78
2021/07/24 03:52:36;;;;;;;11.80;7.80;;;16.50;99.90;;;;;;4135448;28;20216;-78
2021/07/24 03:54:38;;;;;;;13.13;7.83;;;16.50;99.90;;;;;;4140629;28;20250;-78
2021/07/24 03:56:40;;;;;;;10.70;7.80;;;16.50;99.90;;;;;;4148282;28;20265;-79
2021/07/24 03:58:42;;;;;;;10.13;7.33;;;16.50;99.90;;;;;;4147982;28;20233;-78
2021/07/24 04:00:46;;;;;;;11.50;7.40;;;16.40;99.90;;;;;;4146701;28;20601;-79
2021/07/24 04:02:48;;;;;;;13.77;8.10;;;16.40;99.90;;;;;;4148269;28;20559;-79
2021/07/24 04:04:52;;;;;;;13.43;7.83;;;16.40;99.90;;;;;;4148032;28;20256;-78
2021/07/24 04:06:55;;;;;;;13.00;7.93;;;16.40;99.90;;;;;;4148636;28;20250;-78
2021/07/24 04:08:58;;;;;;;13.50;8.07;;;16.40;99.90;;;;;;4140359;28;20233;-78
2021/07/24 04:11:00;;;;;;;9.27;7.07;;;16.30;99.90;;;;;;4148828;28;20217;-78
2021/07/24 04:13:02;;;;;;;12.87;7.77;;;16.30;99.90;;;;;;4147770;28;20217;-78
2021/07/24 04:15:05;;;;;;;14.43;8.07;;;16.30;99.90;;;;;;4146013;28;20289;-79
2021/07/24 04:17:08;;;;;;;11.17;7.63;;;16.30;99.90;;;;;;4149055;28;20269;-79
2021/07/24 04:19:09;;;;;;;12.37;8.00;;;16.20;99.90;;;;;;4148980;28;20711;-79
2021/07/24 04:21:13;;;;;;;12.07;8.20;;;16.20;99.90;;;;;;4142275;28;20223;-79
2021/07/24 04:23:15;;;;;;;13.00;8.10;;;16.20;99.90;;;;;;4145330;28;20226;-79
2021/07/24 04:25:17;;;;;;;11.90;7.67;;;16.20;99.90;;;;;;4151374;28;20254;-78
2021/07/24 04:27:19;;;;;;;11.80;7.50;;;16.20;99.90;;;;;;4150689;28;20253;-78
2021/07/24 04:29:22;;;;;;;10.83;7.53;;;16.20;99.90;;;;;;4146202;28;20248;-79
2021/07/24 04:31:24;;;;;;;12.20;7.60;;;16.20;99.90;;;;;;4140560;28;20209;-78
2021/07/24 04:33:26;;;;;;;14.30;7.43;;;16.10;99.90;;;;;;4137878;28;20214;-78
2021/07/24 04:35:28;;;;;;;12.57;8.10;;;16.20;99.90;;;;;;4132438;28;20657;-78
2021/07/24 04:37:31;;;;;;;9.67;6.70;;;16.20;99.90;;;;;;4132346;28;20211;-78
2021/07/24 04:39:33;;;;;;;11.07;7.63;;;16.20;99.90;;;;;;4144590;28;20289;-79
2021/07/24 04:41:34;;;;;;;11.03;6.80;;;16.20;99.90;;;;;;4147464;28;20229;-78
2021/07/24 04:43:36;;;;;;;11.57;7.27;;;16.20;99.90;;;;;;4144788;28;20237;-78
2021/07/24 04:45:41;;;;;;;9.97;6.87;;;16.20;99.90;;;;;;4131287;28;20276;-78
2021/07/24 04:47:43;;;;;;;10.50;6.93;;;16.10;99.90;;;;;;4145502;28;20296;-80
2021/07/24 04:49:48;;;;;;;11.53;6.90;;;16.20;99.90;;;;;;4146640;28;20257;-78
2021/07/24 04:51:51;;;;;;;10.17;6.83;;;16.20;99.90;;;;;;4147125;28;20586;-78
2021/07/24 04:53:55;;;;;;;11.13;7.50;;;16.20;99.90;;;;;;4141199;28;20237;-78
2021/07/24 04:55:57;;;;;;;12.30;7.43;;;16.20;99.90;;;;;;4139002;28;20240;-78
2021/07/24 04:57:59;;;;;;;10.10;6.80;;;16.20;99.90;;;;;;4145644;28;20274;-78
2021/07/24 05:00:01;;;;;;;12.77;7.47;;;16.20;99.90;;;;;;4146679;28;20215;-78
2021/07/24 05:02:03;;;;;;;9.77;6.90;;;16.20;99.90;;;;;;4140427;28;20288;-81
2021/07/24 05:04:05;;;;;;;10.87;7.30;;;16.20;99.90;;;;;;4140393;28;20218;-78
2021/07/24 05:06:07;;;;;;;11.70;7.27;;;16.20;99.90;;;;;;4138790;28;20669;-78
2021/07/24 05:08:10;;;;;;;11.23;6.90;;;16.20;99.90;;;;;;4142625;28;20697;-78
2021/07/24 05:10:13;;;;;;;11.47;6.90;;;16.30;99.90;;;;;;4147816;28;20213;-79
2021/07/24 05:12:15;;;;;;;11.20;7.13;;;16.30;99.90;;;;;;4132976;28;20248;-78
2021/07/24 05:14:16;;;;;;;11.73;7.33;;;16.30;99.90;;;;;;4133992;28;20825;-78
2021/07/24 05:16:18;;;;;;;11.27;7.47;;;16.30;99.90;;;;;;4132234;28;20215;-78
2021/07/24 05:18:20;;;;;;;11.37;8.00;;;16.30;99.90;;;;;;4139731;28;20245;-79
2021/07/24 05:20:24;;;;;;;11.30;7.50;;;16.30;99.90;;;;;;4139996;28;20719;-78
2021/07/24 05:22:26;;;;;;;9.93;7.17;;;16.30;99.90;;;;;;4131561;28;20648;-78
2021/07/24 05:24:27;;;;;;;12.30;7.50;;;16.40;99.90;;;;;;4130266;28;20265;-78
2021/07/24 05:26:30;;;;;;;10.47;7.47;;;16.50;99.90;;;;;;4143415;28;20225;-78
2021/07/24 05:28:32;;;;;;;10.40;7.20;;;16.40;99.90;;;;;;4147191;28;20239;-78
2021/07/24 05:30:34;;;;;;;11.43;7.50;;;16.40;99.90;;;;;;4143465;28;20215;-78
2021/07/24 05:32:36;;;;;;;10.70;7.53;;;16.50;99.90;;;;;;4150199;28;20660;-79
2021/07/24 05:34:38;;;;;;;11.27;7.70;;;16.50;99.90;;;;;;4139073;28;20249;-78
2021/07/24 05:36:39;;;;;;;12.17;6.87;;;16.50;99.90;;;;;;4140062;28;20279;-77
2021/07/24 05:38:41;;;;;;;10.97;7.70;;;16.60;99.90;;;;;;4140501;28;20655;-79
2021/07/24 05:40:43;;;;;;;11.50;7.57;;;16.60;99.90;;;;;;4136554;28;20212;-78
2021/07/24 05:42:46;;;;;;;9.87;7.50;;;16.60;99.90;;;;;;4131305;28;20588;-79
2021/07/24 05:44:47;;;;;;;13.97;7.77;;;16.70;99.90;;;;;;4129526;28;20215;-80
2021/07/24 05:46:49;;;;;;;11.10;7.23;;;16.70;99.90;;;;;;4146592;28;20216;-79
2021/07/24 05:48:51;;;;;;;12.07;7.50;;;16.80;99.90;;;;;;4146639;28;20223;-81
2021/07/24 05:50:54;;;;;;;10.47;7.67;;;16.80;99.90;;;;;;4133320;28;20280;-78
2021/07/24 05:52:55;;;;;;;11.73;8.10;;;16.80;99.90;;;;;;4140227;28;20247;-78
2021/07/24 05:54:57;;;;;;;12.37;8.80;;;16.90;99.90;;;;;;4146136;28;20227;-78
2021/07/24 05:56:59;;;;;;;12.03;8.63;;;16.80;99.90;;;;;;4146412;28;20212;-78
2021/07/24 05:59:03;;;;;;;13.87;9.10;;;17.00;99.90;;;;;;4144184;28;20243;-79
2021/07/24 06:01:09;;;;;;;12.77;8.57;;;17.00;99.90;;;;;;4144357;28;20212;-78
2021/07/24 06:03:11;;;;;;;12.30;8.97;;;17.10;99.90;;;;;;4155651;28;20218;-78
2021/07/24 06:05:12;;;;;;;13.63;8.70;;;17.50;99.90;;;;;;4146524;28;20212;-78
2021/07/24 06:07:14;;;;;;;13.43;9.17;;;17.10;99.90;;;;;;4137464;28;20267;-78
2021/07/24 06:09:16;;;;;;;12.90;8.53;;;17.20;99.90;;;;;;4134080;28;20274;-78
2021/07/24 06:11:18;;;;;;;13.90;8.87;;;17.30;99.90;;;;;;4146570;28;20266;-79
2021/07/24 06:13:23;;;;;;;12.73;9.20;;;17.30;99.90;;;;;;4147434;28;20216;-80
2021/07/24 06:15:26;;;;;;;16.30;9.60;;;17.30;99.90;;;;;;4146833;28;20232;-78
2021/07/24 06:17:28;;;;;;;16.03;10.13;;;17.40;99.90;;;;;;4143594;28;20299;-78
2021/07/24 06:19:30;;;;;;;16.00;9.53;;;17.50;99.90;;;;;;4147212;28;20235;-79
2021/07/24 06:21:32;;;;;;;15.13;9.10;;;17.60;99.90;;;;;;4142470;28;20263;-81
2021/07/24 06:23:35;;;;;;;14.33;9.40;;;17.60;99.90;;;;;;4132778;28;20217;-80
2021/07/24 06:25:36;;;;;;;14.67;10.07;;;17.60;99.90;;;;;;4135145;28;20654;-80
2021/07/24 06:27:38;;;;;;;14.90;9.70;;;17.60;99.90;;;;;;4148537;28;20216;-79
2021/07/24 06:29:40;;;;;;;16.07;9.57;;;17.70;99.90;;;;;;4151480;28;20259;-81
2021/07/24 06:31:43;;;;;;;14.63;10.37;;;17.70;99.90;;;;;;4146916;28;20216;-77
2021/07/24 06:33:44;;;;;;;14.83;9.93;;;17.70;99.90;;;;;;4133714;28;20738;-79
2021/07/24 06:35:46;;;;;;;14.03;9.97;;;17.80;99.90;;;;;;4136590;28;20299;-80
2021/07/24 06:37:48;;;;;;;14.67;10.37;;;17.80;99.90;;;;;;4153202;28;20212;-80
2021/07/24 06:39:50;;;;;;;15.10;11.07;;;17.90;99.90;;;;;;4165017;28;20227;-80
2021/07/24 06:41:51;;;;;;;17.50;11.10;;;17.90;99.90;;;;;;4162240;28;20211;-82
2021/07/24 06:43:54;;;;;;;15.10;9.83;;;17.90;99.90;;;;;;4159459;28;20220;-82
2021/07/24 06:45:56;;;;;;;16.60;11.50;;;18.00;99.90;;;;;;4161881;28;20718;-78
2021/07/24 06:47:59;;;;;;;16.80;11.00;;;18.00;99.90;;;;;;4153361;28;20216;-81
2021/07/24 06:50:01;;;;;;;17.33;11.33;;;18.10;99.90;;;;;;4148910;28;20561;-79
2021/07/24 06:52:03;;;;;;;16.83;11.93;;;18.20;99.90;;;;;;4150603;28;20217;-80
2021/07/24 06:54:04;;;;;;;17.57;12.27;;;18.20;99.90;;;;;;4144980;28;20213;-80
2021/07/24 06:56:06;;;;;;;18.43;12.57;;;18.40;99.90;;;;;;4150035;28;20763;-79
2021/07/24 06:58:08;;;;;;;19.60;12.47;;;18.30;99.90;;;;;;4149461;28;20696;-78
2021/07/24 07:00:11;;;;;;;18.13;12.47;;;18.30;99.90;;;;;;4142317;28;20295;-79
2021/07/24 07:02:12;;;;;;;19.97;12.87;;;18.30;99.90;;;;;;4145153;28;20711;-79
2021/07/24 07:04:16;;;;;;;20.17;13.67;;;18.40;99.90;;;;;;4143455;28;20201;-78
2021/07/24 07:06:18;;;;;;;18.53;13.03;;;18.40;99.90;;;;;;4145838;28;20218;-79
2021/07/24 07:08:20;;;;;;;20.17;13.80;;;18.50;99.90;;;;;;4147976;28;20239;-79
2021/07/24 07:10:22;;;;;;;20.67;13.03;;;18.50;99.90;;;;;;4140492;28;20221;-78
2021/07/24 07:12:24;;;;;;;22.90;14.70;;;18.50;99.90;;;;;;4142847;28;20208;-79
2021/07/24 07:14:26;;;;;;;21.73;14.10;;;18.60;99.90;;;;;;4149195;28;20615;-79
2021/07/24 07:16:28;;;;;;;24.07;14.87;;;18.70;99.90;;;;;;4148517;28;20217;-77
2021/07/24 07:18:30;;;;;;;22.30;14.47;;;18.70;99.90;;;;;;4146252;28;20249;-77
2021/07/24 07:20:33;;;;;;;22.23;14.97;;;18.80;99.90;;;;;;4138890;28;20272;-78
2021/07/24 07:22:35;;;;;;;22.50;15.00;;;18.80;99.90;;;;;;4145024;28;20241;-78
2021/07/24 07:24:37;;;;;;;26.63;15.47;;;18.90;99.90;;;;;;4145821;28;20206;-77
2021/07/24 07:26:40;;;;;;;23.47;15.30;;;18.90;99.90;;;;;;4147701;28;20742;-81
2021/07/24 07:28:41;;;;;;;23.13;14.77;;;19.00;99.90;;;;;;4153176;28;20232;-77
2021/07/24 07:30:43;;;;;;;24.87;15.50;;;19.10;99.90;;;;;;4153823;28;20263;-78
2021/07/24 07:32:45;;;;;;;22.07;15.10;;;19.10;99.90;;;;;;4150065;28;20222;-79
2021/07/24 07:34:46;;;;;;;22.43;15.33;;;19.10;99.90;;;;;;4150850;28;20754;-80
2021/07/24 07:36:50;;;;;;;23.13;15.43;;;19.20;99.90;;;;;;4147533;28;20214;-79
2021/07/24 07:38:51;;;;;;;23.63;15.60;;;19.20;99.90;;;;;;4148273;28;20297;-79
2021/07/24 07:40:53;;;;;;;23.33;15.57;;;19.30;99.90;;;;;;4147440;28;20213;-80
2021/07/24 07:42:55;;;;;;;24.63;16.27;;;19.40;99.90;;;;;;4136227;28;20219;-80
2021/07/24 07:44:57;;;;;;;24.83;16.17;;;19.40;99.90;;;;;;4147992;28;20213;-79
2021/07/24 07:46:58;;;;;;;22.90;15.87;;;19.50;99.90;;;;;;4145783;28;20597;-80
2021/07/24 07:49:01;;;;;;;21.83;14.97;;;19.40;99.90;;;;;;4150391;28;20242;-80
2021/07/24 07:51:03;;;;;;;22.30;15.17;;;19.60;99.90;;;;;;4150614;28;20207;-79
2021/07/24 07:53:06;;;;;;;25.13;16.30;;;19.60;99.90;;;;;;4151799;28;20214;-80
2021/07/24 07:55:08;;;;;;;22.27;15.23;;;19.70;99.90;;;;;;4153086;28;20700;-80
2021/07/24 07:57:10;;;;;;;22.17;15.23;;;19.70;99.90;;;;;;4152397;28;20219;-80
2021/07/24 07:59:12;;;;;;;21.70;15.13;;;19.80;99.90;;;;;;4150780;28;20307;-80
2021/07/24 08:01:14;;;;;;;24.10;15.40;;;19.80;99.90;;;;;;4146153;28;20224;-79
2021/07/24 08:03:19;;;;;;;21.80;15.43;;;19.90;99.90;;;;;;4155129;28;20216;-80
2021/07/24 08:05:21;;;;;;;23.33;16.23;;;19.90;99.90;;;;;;4154531;28;20293;-80
2021/07/24 08:07:23;;;;;;;24.33;16.17;;;20.00;99.90;;;;;;4148002;28;20218;-79
2021/07/24 08:09:26;;;;;;;22.27;16.27;;;20.10;99.90;;;;;;4139302;28;20247;-78
2021/07/24 08:11:28;;;;;;;23.07;16.27;;;20.20;99.90;;;;;;4151955;28;20547;-78
2021/07/24 08:13:30;;;;;;;22.10;15.63;;;20.20;99.90;;;;;;4142147;28;20211;-85
2021/07/24 08:15:33;;;;;;;24.70;15.80;;;20.30;99.90;;;;;;4149963;28;20233;-79
2021/07/24 08:17:37;;;;;;;23.40;16.03;;;20.30;99.90;;;;;;4150479;28;20229;-79
2021/07/24 08:19:38;;;;;;;22.43;15.77;;;20.40;99.90;;;;;;4146925;28;20295;-79
2021/07/24 08:21:40;;;;;;;23.77;15.87;;;20.40;99.90;;;;;;4150638;28;20217;-79
2021/07/24 08:23:42;;;;;;;22.27;14.87;;;20.40;99.90;;;;;;4139339;28;20220;-79
2021/07/24 08:25:45;;;;;;;21.87;15.30;;;20.50;99.90;;;;;;4151753;28;20273;-79
2021/07/24 08:27:47;;;;;;;24.77;15.93;;;20.50;99.90;;;;;;4156090;28;20630;-79
2021/07/24 08:29:49;;;;;;;21.17;15.50;;;20.60;99.90;;;;;;4151865;28;20253;-80
2021/07/24 08:31:50;;;;;;;22.37;15.80;;;20.70;99.90;;;;;;4148716;28;20238;-80
2021/07/24 08:33:52;;;;;;;21.17;14.77;;;20.70;99.90;;;;;;4144647;28;20203;-79
2021/07/24 08:35:55;;;;;;;24.53;16.20;;;20.70;99.90;;;;;;4151489;28;20766;-79
2021/07/24 08:37:57;;;;;;;23.07;16.17;;;20.80;99.90;;;;;;4141850;28;20556;-79
2021/07/24 08:39:58;;;;;;;23.17;15.97;;;20.90;99.90;;;;;;4136037;28;20212;-79
2021/07/24 08:42:02;;;;;;;24.27;16.27;;;21.00;99.90;;;;;;4142930;28;20550;-80
2021/07/24 08:44:04;;;;;;;23.30;15.27;;;21.00;99.90;;;;;;4154858;28;20212;-79
2021/07/24 08:46:06;;;;;;;20.87;14.30;;;21.00;99.90;;;;;;4155720;28;20202;-78
2021/07/24 08:48:08;;;;;;;21.90;15.40;;;21.10;99.90;;;;;;4156970;28;20214;-77
2021/07/24 08:50:12;;;;;;;22.73;14.73;;;21.20;99.90;;;;;;4157433;28;20268;-79
2021/07/24 08:52:19;;;;;;;23.67;14.97;;;21.30;99.90;;;;;;4149709;28;20207;-79
2021/07/24 08:54:21;;;;;;;20.83;14.93;;;21.40;99.90;;;;;;4151044;28;20208;-79
2021/07/24 08:56:27;;;;;;;21.63;14.63;;;21.40;99.90;;;;;;4155911;28;20227;-79
2021/07/24 08:58:32;;;;;;;21.30;14.53;;;21.50;99.90;;;;;;4150832;28;20230;-77
2021/07/24 09:00:34;;;;;;;20.53;14.13;;;21.60;99.90;;;;;;4145968;28;20235;-79
2021/07/24 09:02:38;;;;;;;17.67;13.63;;;21.60;99.90;;;;;;4159335;28;20623;-79
2021/07/24 09:04:48;;;;;;;19.37;13.70;;;21.70;99.90;;;;;;4161924;28;20266;-78
2021/07/24 09:06:55;;;;;;;22.03;14.97;;;21.70;99.90;;;;;;4158137;28;20206;-79
2021/07/24 09:08:57;;;;;;;20.67;15.03;;;21.80;99.90;;;;;;4158615;28;20232;-80
2021/07/24 09:10:59;;;;;;;20.33;14.37;;;21.90;99.90;;;;;;4149786;28;20208;-80
2021/07/24 09:13:00;;;;;;;21.10;14.50;;;22.00;99.90;;;;;;4142837;28;20746;-80
2021/07/24 09:15:05;;;;;;;21.07;14.43;;;22.00;99.90;;;;;;4144247;28;20212;-80
2021/07/24 09:17:10;;;;;;;19.00;14.07;;;22.10;99.90;;;;;;4138402;28;20223;-79
2021/07/24 09:19:12;;;;;;;19.17;13.90;;;22.10;99.90;;;;;;4166652;23;20621;-79
2021/07/24 09:21:16;;;;;;;23.40;14.13;;;22.20;99.90;;;;;;4134925;28;20212;-79
2021/07/24 09:23:33;;;;;;;19.53;13.57;;;22.20;99.90;;;;;;4129940;28;20221;-78
2021/07/24 09:25:42;;;;;;;18.03;13.73;;;22.30;99.90;;;;;;4130545;28;20201;-79
2021/07/24 09:27:46;;;;;;;20.33;13.80;;;22.40;99.90;;;;;;4135390;28;20582;-79
2021/07/24 09:29:48;;;;;;;20.40;14.27;;;22.40;99.90;;;;;;4135406;28;20239;-79
2021/07/24 09:31:51;;;;;;;23.87;15.73;;;22.60;99.90;;;;;;4124411;28;20219;-79
2021/07/24 09:33:54;;;;;;;21.40;15.03;;;22.70;99.90;;;;;;4128819;28;20309;-78
2021/07/24 09:35:56;;;;;;;19.40;14.13;;;22.70;99.90;;;;;;4135859;28;20222;-78
2021/07/24 09:37:58;;;;;;;20.63;14.13;;;22.80;99.90;;;;;;4134357;28;20210;-78
2021/07/24 09:40:20;;;;;;;19.40;13.90;;;22.90;99.90;;;;;;4117163;28;20240;-78
2021/07/24 09:42:22;;;;;;;19.60;13.90;;;23.00;99.90;;;;;;4124886;28;20219;-79
2021/07/24 09:44:31;;;;;;;19.47;14.13;;;23.10;99.90;;;;;;4130241;28;20265;-78
2021/07/24 09:46:32;;;;;;;20.73;14.80;;;23.10;99.90;;;;;;4127392;28;20250;-78
2021/07/24 09:48:35;;;;;;;20.50;13.60;;;23.20;99.60;;;;;;4127151;28;20715;-79
2021/07/24 09:50:39;;;;;;;18.33;13.53;;;23.30;99.50;;;;;;4141255;28;20215;-78
2021/07/24 09:52:49;;;;;;;18.70;13.57;;;23.40;99.70;;;;;;4133324;28;20671;-78
2021/07/24 09:54:50;;;;;;;20.10;13.50;;;23.50;99.20;;;;;;4134055;28;20215;-78
2021/07/24 09:56:52;;;;;;;20.47;14.23;;;23.60;98.40;;;;;;4126198;28;20236;-78
2021/07/24 09:59:19;;;;;;;17.93;13.30;;;23.70;97.70;;;;;;4130611;28;20297;-78
2021/07/24 10:01:21;;;;;;;19.90;14.27;;;23.80;97.30;;;;;;4119421;28;20300;-78
2021/07/24 10:03:28;;;;;;;19.37;14.10;;;23.90;97.40;;;;;;4131742;28;20205;-81
2021/07/24 10:05:34;;;;;;;19.60;13.83;;;24.00;97.60;;;;;;4134676;28;20270;-83
2021/07/24 10:07:36;;;;;;;19.67;13.53;;;24.10;97.20;;;;;;4135149;28;20274;-83
2021/07/24 10:09:41;;;;;;;16.73;12.87;;;24.20;96.50;;;;;;4140914;28;20231;-83
2021/07/24 10:11:43;;;;;;;17.73;13.33;;;24.30;95.70;;;;;;4136468;28;20283;-83
2021/07/24 10:13:45;;;;;;;17.93;13.70;;;24.40;96.50;;;;;;4130255;28;20209;-84
2021/07/24 10:15:47;;;;;;;17.53;13.40;;;24.40;96.60;;;;;;4121009;28;20237;-82
2021/07/24 10:17:49;;;;;;;16.47;12.83;;;24.50;96.80;;;;;;4145006;28;20227;-83
2021/07/24 10:19:52;;;;;;;17.10;12.53;;;24.60;96.20;;;;;;4151104;28;20301;-85
2021/07/24 10:21:56;;;;;;;17.07;12.87;;;24.70;95.70;;;;;;4150170;28;20215;-85
2021/07/24 10:23:58;;;;;;;16.23;12.20;;;24.80;95.90;;;;;;4125914;28;20287;-84
2021/07/24 10:26:11;;;;;;;18.20;13.40;;;24.90;95.40;;;;;;4127622;28;20272;-85
2021/07/24 10:28:15;;;;;;;17.30;12.97;;;24.90;94.00;;;;;;4140426;28;20216;-84
2021/07/24 10:30:17;;;;;;;18.90;12.83;;;25.00;94.40;;;;;;4140686;28;20242;-84